Time;durP1;ratioP1;P1;durP2;ratioP2;P2;SDS_P1;SDS_P2;PMS_P1;PMS_P2;Temp;Humidity;BMP_temperature;BMP_pressure;BME280_temperature;BME280_humidity;BME280_pressure;Samples;Min_cycle;Max_cycle;Signal;HPM_P1;HPM_P2
2021/12/16 00:08:54;;;;;;;14.57;11.50;;;9.70;99.90;;;;;;5002221;28;20435;-55
2021/12/16 00:30:50;;;;;;;14.10;10.60;;;9.70;99.90;;;;;;4997931;28;20533;-53
2021/12/16 00:35:34;;;;;;;13.80;11.00;;;9.70;99.90;;;;;;4998988;28;20542;-50
2021/12/16 00:37:59;;;;;;;16.40;11.90;;;9.60;99.90;;;;;;5001281;28;20508;-48
2021/12/16 00:40:25;;;;;;;20.03;11.47;;;9.70;99.90;;;;;;4999405;28;20283;-51
2021/12/16 00:42:56;;;;;;;19.70;12.23;;;9.70;99.90;;;;;;5001034;28;20251;-51
2021/12/16 00:47:56;;;;;;;15.73;10.90;;;9.60;99.90;;;;;;5000561;28;20444;-53
2021/12/16 00:54:09;;;;;;;17.27;11.40;;;9.50;99.90;;;;;;5001036;28;20780;-52
2021/12/16 00:55:57;;;;;;;12.87;10.07;;;9.60;99.90;;;;;;4998563;28;20513;-52
2021/12/16 00:58:30;;;;;;;16.27;11.50;;;9.60;99.90;;;;;;5000663;28;20459;-51
2021/12/16 01:01:18;;;;;;;14.77;10.60;;;9.20;99.90;;;;;;4998002;28;21065;-50
2021/12/16 01:03:56;;;;;;;14.77;10.30;;;8.90;99.90;;;;;;4999239;28;20485;-52
2021/12/16 01:09:13;;;;;;;14.40;11.30;;;8.90;99.90;;;;;;4997643;28;20444;-51
2021/12/16 01:34:02;;;;;;;11.50;9.90;;;8.80;99.90;;;;;;4996090;28;20505;-51
2021/12/16 01:36:51;;;;;;;13.53;10.63;;;8.90;99.90;;;;;;4997640;28;20918;-52
2021/12/16 01:47:19;;;;;;;15.57;10.40;;;8.80;99.90;;;;;;4999191;28;20497;-51
2021/12/16 01:54:53;;;;;;;16.00;10.57;;;8.90;99.90;;;;;;4997348;28;20565;-53
2021/12/16 01:57:50;;;;;;;13.47;10.53;;;9.10;99.90;;;;;;4999417;28;20440;-50
2021/12/16 02:00:18;;;;;;;15.70;10.40;;;9.20;99.90;;;;;;5000728;28;20463;-50
2021/12/16 02:02:48;;;;;;;14.60;10.23;;;9.30;99.90;;;;;;4997465;28;20456;-52
2021/12/16 02:05:27;;;;;;;13.60;10.80;;;9.30;99.90;;;;;;4998955;28;20451;-50
2021/12/16 02:10:26;;;;;;;13.20;10.50;;;8.90;99.90;;;;;;4999420;28;20583;-51
2021/12/16 02:31:48;;;;;;;11.70;9.30;;;8.80;99.90;;;;;;4997350;28;20440;-54
2021/12/16 02:36:46;;;;;;;11.83;8.83;;;8.80;99.90;;;;;;4998242;28;20452;-51
2021/12/16 02:39:16;;;;;;;14.87;9.53;;;8.60;99.90;;;;;;4998118;28;20853;-51
2021/12/16 02:41:46;;;;;;;13.00;9.97;;;8.60;99.90;;;;;;4997578;28;20489;-50
2021/12/16 02:49:36;;;;;;;10.87;9.13;;;8.60;99.90;;;;;;4997701;28;20443;-52
2021/12/16 02:52:03;;;;;;;11.43;9.53;;;8.50;99.90;;;;;;4996402;28;20475;-53
2021/12/16 02:54:29;;;;;;;13.77;10.00;;;8.40;99.90;;;;;;4998950;28;20464;-53
2021/12/16 02:56:56;;;;;;;11.83;9.50;;;8.40;99.90;;;;;;5000339;28;20448;-53
2021/12/16 02:59:27;;;;;;;14.27;9.67;;;8.20;99.90;;;;;;5001700;28;20855;-53
2021/12/16 03:01:55;;;;;;;13.10;9.37;;;8.40;99.90;;;;;;5002064;28;20463;-52
2021/12/16 03:04:25;;;;;;;18.50;12.27;;;8.40;99.90;;;;;;4995941;28;20505;-51
2021/12/16 03:06:53;;;;;;;17.17;12.60;;;8.40;99.90;;;;;;5000458;28;20855;-54
2021/12/16 03:09:33;;;;;;;11.60;9.30;;;8.50;99.90;;;;;;5000914;28;20435;-52
2021/12/16 03:14:50;;;;;;;15.10;10.33;;;8.30;99.90;;;;;;5001696;28;20471;-48
2021/12/16 03:17:32;;;;;;;12.57;9.80;;;8.30;99.90;;;;;;5001165;28;20437;-48
2021/12/16 03:20:08;;;;;;;15.03;10.93;;;8.30;99.90;;;;;;5000821;28;20452;-52
2021/12/16 03:25:33;;;;;;;15.03;10.60;;;8.30;99.90;;;;;;5001676;28;20439;-53
2021/12/16 03:38:17;;;;;;;13.50;10.43;;;8.00;99.90;;;;;;5001455;28;20743;-52
2021/12/16 03:40:43;;;;;;;13.20;9.90;;;8.10;99.90;;;;;;5000150;28;20439;-51
2021/12/16 03:43:13;;;;;;;13.20;10.07;;;8.00;99.90;;;;;;5000571;28;21197;-50
2021/12/16 03:48:41;;;;;;;15.77;9.87;;;8.20;99.90;;;;;;4999671;28;20423;-53
2021/12/16 03:51:29;;;;;;;13.53;9.17;;;8.40;99.90;;;;;;4999228;28;20448;-52
2021/12/16 03:54:00;;;;;;;12.07;9.30;;;8.20;99.90;;;;;;4993293;28;20611;-50
2021/12/16 03:56:27;;;;;;;15.30;9.50;;;8.10;99.90;;;;;;5001514;28;20770;-52
2021/12/16 03:58:53;;;;;;;12.47;8.90;;;8.10;99.90;;;;;;5000681;28;20560;-53
2021/12/16 04:01:22;;;;;;;13.73;8.97;;;8.00;99.90;;;;;;4997997;28;20464;-50
2021/12/16 04:03:50;;;;;;;10.90;8.30;;;8.00;99.90;;;;;;5000750;28;20830;-53
2021/12/16 04:06:17;;;;;;;11.33;7.80;;;8.10;99.90;;;;;;5000222;28;20428;-55
2021/12/16 04:08:43;;;;;;;8.83;7.00;;;8.20;99.90;;;;;;4997653;28;20438;-54
2021/12/16 04:11:19;;;;;;;10.73;7.83;;;8.00;99.90;;;;;;4998650;28;20490;-51
2021/12/16 04:13:55;;;;;;;10.13;7.27;;;8.10;99.90;;;;;;4998911;28;20464;-51
2021/12/16 04:16:28;;;;;;;7.67;6.47;;;8.20;99.90;;;;;;5001362;28;20495;-51
2021/12/16 04:18:54;;;;;;;11.10;7.67;;;8.20;99.90;;;;;;5002553;28;21290;-51
2021/12/16 04:21:21;;;;;;;14.43;7.37;;;8.10;99.90;;;;;;4999091;28;20432;-52
2021/12/16 04:23:49;;;;;;;9.87;6.30;;;8.10;99.90;;;;;;5002784;28;20456;-53
2021/12/16 04:26:16;;;;;;;9.00;6.53;;;7.90;99.90;;;;;;4999036;28;20758;-50
2021/12/16 04:28:42;;;;;;;7.23;6.10;;;7.80;99.90;;;;;;5000205;28;20440;-51
2021/12/16 04:31:09;;;;;;;9.73;6.70;;;7.60;99.90;;;;;;5000130;28;20491;-55
2021/12/16 04:33:39;;;;;;;8.27;5.73;;;7.80;99.90;;;;;;4999558;28;20825;-52
2021/12/16 04:36:07;;;;;;;8.03;5.60;;;7.90;99.90;;;;;;5001502;28;20416;-52
2021/12/16 04:38:32;;;;;;;6.00;5.40;;;7.80;99.90;;;;;;5000834;28;20436;-51
2021/12/16 04:40:58;;;;;;;9.23;6.03;;;7.90;99.90;;;;;;5000360;28;20435;-52
2021/12/16 04:43:33;;;;;;;8.87;4.53;;;8.10;99.90;;;;;;4998687;28;20440;-53
2021/12/16 04:45:59;;;;;;;6.33;4.57;;;8.20;99.90;;;;;;4999242;28;20465;-53
2021/12/16 04:48:24;;;;;;;7.27;4.37;;;8.20;99.90;;;;;;4999484;28;20523;-53
2021/12/16 04:50:51;;;;;;;9.57;4.90;;;7.80;99.90;;;;;;5000955;28;20419;-51
2021/12/16 04:53:17;;;;;;;7.00;5.23;;;7.80;99.90;;;;;;4998549;28;20411;-53
2021/12/16 04:55:42;;;;;;;6.43;4.90;;;7.70;99.90;;;;;;4999827;28;20542;-53
2021/12/16 04:58:08;;;;;;;7.53;5.20;;;7.60;99.90;;;;;;4999167;28;20792;-51
2021/12/16 05:00:34;;;;;;;6.40;4.87;;;7.70;99.90;;;;;;4999080;28;20596;-51
2021/12/16 05:03:00;;;;;;;6.60;4.50;;;7.70;99.90;;;;;;4997623;28;20202;-53
2021/12/16 05:05:25;;;;;;;5.30;4.07;;;7.80;99.90;;;;;;4996729;28;20655;-52
2021/12/16 05:07:52;;;;;;;7.20;4.80;;;7.80;99.90;;;;;;4998820;28;20272;-54
2021/12/16 05:10:18;;;;;;;5.43;4.37;;;7.60;99.90;;;;;;4999689;28;20294;-48
2021/12/16 05:13:04;;;;;;;4.93;4.07;;;7.60;99.90;;;;;;4995429;28;21882;-51
2021/12/16 05:15:34;;;;;;;6.47;4.50;;;7.70;99.90;;;;;;5000218;28;20541;-52
2021/12/16 05:18:03;;;;;;;6.00;4.40;;;7.80;99.90;;;;;;4999009;28;20571;-52
2021/12/16 05:20:32;;;;;;;6.73;4.70;;;7.90;99.90;;;;;;4998729;28;20450;-49
2021/12/16 05:28:29;;;;;;;5.20;3.77;;;7.90;99.90;;;;;;5000463;28;20489;-51
2021/12/16 05:30:55;;;;;;;6.00;3.60;;;8.00;99.90;;;;;;4999488;28;21017;-53
2021/12/16 05:33:23;;;;;;;6.93;4.70;;;7.90;99.90;;;;;;4999094;28;20543;-49
2021/12/16 05:35:49;;;;;;;5.80;4.50;;;8.10;99.90;;;;;;5001109;28;20432;-53
2021/12/16 05:38:15;;;;;;;5.93;4.33;;;8.00;99.90;;;;;;5000887;28;20439;-52
2021/12/16 05:40:41;;;;;;;6.30;4.30;;;7.80;99.90;;;;;;4998644;28;20559;-51
2021/12/16 05:43:11;;;;;;;6.60;5.30;;;8.00;99.90;;;;;;5000604;28;20528;-53
2021/12/16 05:45:38;;;;;;;5.60;4.80;;;7.90;99.90;;;;;;4998273;28;20731;-52
2021/12/16 05:48:08;;;;;;;5.00;4.07;;;7.90;99.90;;;;;;4998030;28;20429;-50
2021/12/16 05:50:36;;;;;;;8.43;4.30;;;8.00;99.90;;;;;;5014324;28;20965;-53
2021/12/16 05:53:04;;;;;;;5.53;4.20;;;7.90;99.90;;;;;;4999557;28;20530;-52
2021/12/16 05:55:29;;;;;;;7.70;4.67;;;8.00;99.90;;;;;;5000931;28;20463;-51
2021/12/16 05:57:56;;;;;;;6.90;4.40;;;8.00;99.90;;;;;;5001600;28;20916;-51
2021/12/16 06:00:28;;;;;;;7.33;5.10;;;7.90;99.90;;;;;;4996242;28;20212;-51
2021/12/16 06:02:54;;;;;;;6.23;5.23;;;7.90;99.90;;;;;;5000901;28;20960;-52
2021/12/16 06:05:20;;;;;;;7.93;5.67;;;7.90;99.90;;;;;;5001654;28;20879;-53
2021/12/16 06:07:46;;;;;;;9.07;6.30;;;7.90;99.90;;;;;;5000510;28;20937;-53
2021/12/16 06:10:47;;;;;;;6.20;4.90;;;7.90;99.90;;;;;;4998407;28;20598;-54
2021/12/16 06:13:00;;;;;;;7.00;4.50;;;8.10;99.90;;;;;;4997144;28;20995;-53
2021/12/16 06:28:50;;;;;;;7.00;4.67;;;7.50;99.90;;;;;;4993623;28;20447;-52
2021/12/16 06:31:16;;;;;;;6.23;4.90;;;7.70;99.90;;;;;;4998414;28;20495;-51
2021/12/16 06:33:41;;;;;;;6.50;5.30;;;7.80;99.90;;;;;;4998342;28;20228;-53
2021/12/16 06:36:07;;;;;;;8.03;5.70;;;8.00;99.90;;;;;;5000647;28;20492;-52
2021/12/16 06:38:33;;;;;;;8.13;5.70;;;8.00;99.90;;;;;;5002653;28;20180;-52
2021/12/16 06:40:58;;;;;;;7.73;5.37;;;8.00;99.90;;;;;;5001457;28;20189;-51
2021/12/16 06:43:24;;;;;;;9.43;6.37;;;7.80;99.90;;;;;;5002542;28;20224;-53
2021/12/16 06:45:52;;;;;;;7.53;5.00;;;7.90;99.90;;;;;;5002321;28;20181;-50
2021/12/16 06:48:24;;;;;;;6.93;5.30;;;8.00;99.90;;;;;;5003072;28;20182;-52
2021/12/16 06:50:57;;;;;;;6.90;5.57;;;8.20;99.90;;;;;;5001472;28;20794;-51
2021/12/16 06:53:33;;;;;;;5.80;4.50;;;8.10;99.90;;;;;;5002183;28;20439;-54
2021/12/16 06:56:11;;;;;;;7.37;5.23;;;8.10;99.90;;;;;;5001321;28;20415;-53
2021/12/16 06:58:48;;;;;;;6.77;4.90;;;7.90;99.90;;;;;;5001453;28;20428;-53
2021/12/16 07:01:31;;;;;;;8.13;5.90;;;8.00;99.90;;;;;;4999866;28;20426;-52
2021/12/16 07:03:58;;;;;;;8.53;5.53;;;7.90;99.90;;;;;;4997561;28;20954;-53
2021/12/16 07:06:29;;;;;;;7.37;5.73;;;7.90;99.90;;;;;;4999747;28;20448;-53
2021/12/16 07:09:04;;;;;;;7.90;5.00;;;7.90;99.90;;;;;;5001843;28;21043;-54
2021/12/16 07:11:36;;;;;;;8.70;5.20;;;8.00;99.90;;;;;;4998792;28;20937;-52
2021/12/16 07:14:04;;;;;;;7.10;5.20;;;7.80;99.90;;;;;;5002142;28;20510;-54
2021/12/16 07:16:30;;;;;;;9.37;4.90;;;8.00;99.90;;;;;;4997654;28;20443;-50
2021/12/16 07:18:57;;;;;;;6.20;4.70;;;8.00;99.90;;;;;;4998137;28;20438;-49
2021/12/16 07:21:23;;;;;;;6.03;4.73;;;7.90;99.90;;;;;;5000438;28;20466;-49
2021/12/16 07:23:49;;;;;;;7.83;5.33;;;8.10;99.90;;;;;;4994275;28;20532;-50
2021/12/16 07:26:15;;;;;;;5.37;4.27;;;8.10;99.90;;;;;;4996475;28;20976;-49
2021/12/16 07:28:41;;;;;;;6.10;5.03;;;8.00;99.90;;;;;;4999564;28;20567;-52
2021/12/16 07:31:07;;;;;;;8.27;4.63;;;7.90;99.90;;;;;;4997492;28;20185;-49
2021/12/16 07:33:32;;;;;;;9.50;5.10;;;7.70;99.90;;;;;;4997190;28;21047;-51
2021/12/16 07:36:00;;;;;;;6.70;4.33;;;7.80;99.90;;;;;;5000841;28;20432;-49
2021/12/16 07:38:26;;;;;;;6.37;4.40;;;8.00;99.90;;;;;;4997220;28;20185;-52
2021/12/16 07:40:53;;;;;;;6.67;4.27;;;8.00;99.90;;;;;;4998914;28;20451;-47
2021/12/16 07:45:54;;;;;;;8.03;4.67;;;8.10;99.90;;;;;;4995922;28;20440;-53
2021/12/16 07:48:22;;;;;;;7.80;4.13;;;8.10;99.90;;;;;;4998711;28;20898;-51
2021/12/16 07:50:53;;;;;;;5.93;4.20;;;8.00;99.90;;;;;;4996829;28;20979;-51
2021/12/16 07:53:18;;;;;;;5.90;4.30;;;7.90;99.90;;;;;;4996791;28;20506;-52
2021/12/16 07:55:47;;;;;;;6.40;5.00;;;7.80;99.90;;;;;;4999276;28;20496;-54
2021/12/16 07:58:13;;;;;;;5.53;4.63;;;8.00;99.90;;;;;;5000483;28;20187;-56
2021/12/16 08:00:39;;;;;;;7.43;4.53;;;8.10;99.90;;;;;;4998121;28;20487;-52
2021/12/16 08:03:08;;;;;;;5.63;4.20;;;7.80;99.90;;;;;;4999482;28;20457;-51
2021/12/16 08:05:38;;;;;;;5.70;4.20;;;8.00;99.90;;;;;;4999660;28;20432;-51
2021/12/16 08:08:05;;;;;;;5.27;4.03;;;8.00;99.90;;;;;;4999485;28;20427;-53
2021/12/16 08:10:31;;;;;;;6.03;4.40;;;8.10;99.90;;;;;;4998422;28;22401;-54
2021/12/16 08:12:57;;;;;;;5.07;3.80;;;8.20;99.90;;;;;;4999191;28;20506;-53
2021/12/16 08:15:23;;;;;;;5.10;3.63;;;8.20;99.90;;;;;;4997253;28;20478;-54
2021/12/16 08:17:49;;;;;;;4.20;3.63;;;8.40;99.90;;;;;;5014563;28;20445;-54
2021/12/16 08:20:18;;;;;;;5.50;3.87;;;8.30;99.90;;;;;;4997244;28;20471;-54
2021/12/16 08:22:50;;;;;;;6.60;4.00;;;8.00;99.90;;;;;;4999612;28;20209;-57
2021/12/16 08:25:19;;;;;;;5.40;4.10;;;8.20;99.90;;;;;;4996153;28;20443;-52
2021/12/16 08:27:45;;;;;;;6.20;4.17;;;8.30;99.90;;;;;;5002114;28;20448;-52
2021/12/16 08:30:15;;;;;;;6.67;3.70;;;8.30;99.90;;;;;;4997739;28;20440;-53
2021/12/16 08:32:41;;;;;;;5.30;3.93;;;8.40;99.90;;;;;;4998471;28;22322;-53
2021/12/16 08:35:08;;;;;;;7.57;5.00;;;8.30;99.90;;;;;;4994208;28;20460;-50
2021/12/16 08:37:34;;;;;;;5.83;4.90;;;8.40;99.90;;;;;;4995064;28;20194;-54
2021/12/16 08:40:00;;;;;;;9.03;4.63;;;8.40;99.90;;;;;;4998752;28;20446;-52
2021/12/16 08:42:25;;;;;;;6.23;4.87;;;8.40;99.90;;;;;;4999358;28;20857;-53
2021/12/16 08:44:51;;;;;;;10.87;5.70;;;8.50;99.90;;;;;;4996540;28;20431;-53
2021/12/16 08:47:19;;;;;;;10.47;5.47;;;8.40;99.90;;;;;;4996959;28;20655;-53
2021/12/16 08:49:45;;;;;;;10.37;6.33;;;8.30;99.90;;;;;;4998018;28;20517;-53
2021/12/16 08:52:20;;;;;;;12.03;7.20;;;8.10;99.90;;;;;;4999671;28;20432;-53
2021/12/16 08:54:47;;;;;;;7.97;6.03;;;7.90;99.90;;;;;;4995512;28;20467;-53
2021/12/16 08:57:14;;;;;;;12.10;6.30;;;8.00;99.90;;;;;;4997627;28;20443;-54
2021/12/16 08:59:40;;;;;;;8.93;6.40;;;8.30;99.90;;;;;;4999837;28;20492;-52
2021/12/16 09:02:07;;;;;;;8.50;5.43;;;8.40;99.90;;;;;;4999937;28;21044;-53
2021/12/16 09:04:35;;;;;;;7.10;4.90;;;8.60;99.90;;;;;;5002329;28;20490;-53
2021/12/16 09:07:04;;;;;;;7.37;5.80;;;8.40;99.90;;;;;;4997447;28;20444;-51
2021/12/16 09:09:33;;;;;;;10.53;6.53;;;8.30;99.90;;;;;;4999037;28;20482;-48
2021/12/16 09:12:36;;;;;;;6.43;5.00;;;8.30;99.90;;;;;;5000063;28;20598;-52
2021/12/16 09:15:01;;;;;;;6.90;5.20;;;8.30;99.90;;;;;;4996022;28;20465;-50
2021/12/16 09:17:27;;;;;;;8.03;6.17;;;8.30;99.90;;;;;;4997102;28;20510;-54
2021/12/16 09:19:55;;;;;;;7.27;5.50;;;8.40;99.90;;;;;;5000692;28;20465;-49
2021/12/16 09:22:22;;;;;;;9.50;6.00;;;8.30;99.90;;;;;;5000411;28;20215;-51
2021/12/16 09:24:50;;;;;;;8.97;6.90;;;8.30;99.90;;;;;;5002424;28;20427;-52
2021/12/16 09:27:17;;;;;;;8.30;6.47;;;8.20;99.90;;;;;;4998205;28;20514;-54
2021/12/16 09:29:45;;;;;;;7.83;6.20;;;8.30;99.90;;;;;;4995917;28;20463;-52
2021/12/16 09:32:10;;;;;;;8.90;6.53;;;8.40;99.90;;;;;;4999954;28;21099;-50
2021/12/16 09:34:39;;;;;;;7.00;5.83;;;8.40;99.90;;;;;;4994175;28;20594;-53
2021/12/16 09:37:06;;;;;;;7.77;5.90;;;8.40;99.90;;;;;;4988418;28;20298;-52
2021/12/16 09:39:32;;;;;;;7.80;6.33;;;8.50;99.90;;;;;;4996179;28;20435;-50
2021/12/16 09:41:59;;;;;;;9.90;6.00;;;8.60;99.90;;;;;;4998018;28;20448;-49
2021/12/16 09:44:27;;;;;;;7.00;5.70;;;8.70;99.90;;;;;;4995448;28;21008;-52
2021/12/16 09:46:58;;;;;;;7.97;6.27;;;8.80;99.90;;;;;;4982533;28;20428;-50
2021/12/16 09:49:24;;;;;;;8.00;5.93;;;8.90;99.90;;;;;;4996520;28;20515;-49
2021/12/16 09:51:52;;;;;;;11.20;5.77;;;9.00;99.90;;;;;;4995856;28;20420;-50
2021/12/16 09:54:24;;;;;;;7.50;5.53;;;8.80;99.90;;;;;;4995073;28;20471;-54
2021/12/16 09:56:51;;;;;;;10.80;6.90;;;8.70;99.90;;;;;;4998235;28;20942;-52
2021/12/16 09:59:19;;;;;;;8.67;6.70;;;8.70;99.90;;;;;;4996818;28;20519;-53
2021/12/16 10:01:48;;;;;;;10.47;6.60;;;8.70;99.90;;;;;;4994644;28;20534;-49
2021/12/16 10:04:19;;;;;;;10.00;6.73;;;8.80;99.90;;;;;;4997758;28;20921;-49
2021/12/16 10:06:47;;;;;;;8.10;6.67;;;8.80;99.90;;;;;;4997734;28;20958;-53
2021/12/16 10:09:14;;;;;;;8.60;6.60;;;8.90;99.90;;;;;;5001708;28;20547;-53
2021/12/16 10:11:43;;;;;;;8.90;7.13;;;9.10;99.90;;;;;;5004215;28;20510;-52
2021/12/16 10:19:25;;;;;;;8.30;6.83;;;9.20;99.90;;;;;;4999016;28;20558;-52
2021/12/16 10:21:51;;;;;;;9.97;7.10;;;8.80;99.90;;;;;;5002602;28;20523;-48
2021/12/16 10:24:26;;;;;;;14.83;8.10;;;9.00;99.90;;;;;;5000365;28;20178;-53
2021/12/16 10:27:31;;;;;;;8.13;5.83;;;9.20;99.90;;;;;;4997521;28;20445;-50
2021/12/16 10:30:00;;;;;;;8.33;6.47;;;9.10;99.90;;;;;;4925841;29;20446;-50
2021/12/16 10:32:42;;;;;;;10.67;7.80;;;9.30;99.90;;;;;;4927082;29;20570;-48
2021/12/16 10:35:16;;;;;;;9.13;6.80;;;9.40;99.90;;;;;;4966550;28;20850;-50
2021/12/16 10:37:53;;;;;;;9.27;6.80;;;9.00;99.90;;;;;;5002794;28;20446;-49
2021/12/16 10:40:31;;;;;;;8.33;7.43;;;9.10;99.90;;;;;;5001505;28;20471;-50
2021/12/16 10:43:00;;;;;;;16.73;6.83;;;9.20;99.90;;;;;;4999465;28;20464;-51
2021/12/16 10:45:37;;;;;;;10.40;7.00;;;9.10;99.90;;;;;;4997657;28;20827;-51
2021/12/16 10:48:28;;;;;;;11.60;7.13;;;9.20;99.90;;;;;;5000929;28;20425;-53
2021/12/16 10:51:00;;;;;;;10.30;7.30;;;9.20;99.90;;;;;;4997560;28;20798;-53
2021/12/16 10:53:48;;;;;;;8.40;6.40;;;9.20;99.90;;;;;;4999834;28;20483;-52
2021/12/16 10:56:16;;;;;;;12.20;7.40;;;9.10;99.90;;;;;;4994496;28;20929;-53
2021/12/16 10:58:51;;;;;;;7.60;6.00;;;9.10;99.90;;;;;;4997102;28;20428;-54
2021/12/16 11:01:49;;;;;;;8.17;6.47;;;9.00;99.90;;;;;;5000072;28;20443;-49
2021/12/16 11:04:35;;;;;;;9.77;7.50;;;9.10;99.90;;;;;;5001060;28;20428;-50
2021/12/16 11:07:17;;;;;;;11.77;6.67;;;9.20;99.90;;;;;;4998583;28;20432;-52
2021/12/16 11:09:49;;;;;;;10.63;6.60;;;9.30;99.90;;;;;;4999729;28;20502;-48
2021/12/16 11:12:37;;;;;;;11.00;7.40;;;9.20;99.90;;;;;;5000747;28;20757;-52
2021/12/16 11:15:25;;;;;;;9.30;6.70;;;9.30;99.90;;;;;;4997906;28;21128;-51
2021/12/16 11:17:53;;;;;;;8.33;6.90;;;9.20;99.90;;;;;;4997707;28;20868;-50
2021/12/16 11:20:25;;;;;;;10.00;7.10;;;9.30;99.90;;;;;;4997812;28;20427;-53
2021/12/16 11:22:58;;;;;;;9.20;7.17;;;9.00;99.90;;;;;;5001263;28;20502;-50
2021/12/16 11:25:32;;;;;;;10.83;7.40;;;9.20;99.90;;;;;;4998403;28;20879;-50
2021/12/16 11:28:17;;;;;;;11.40;8.53;;;9.20;99.90;;;;;;4999099;28;20450;-48
2021/12/16 11:30:51;;;;;;;8.80;7.00;;;9.20;99.90;;;;;;4998495;28;20566;-51
2021/12/16 11:33:34;;;;;;;16.33;7.43;;;9.40;99.90;;;;;;4997755;28;20448;-49
2021/12/16 11:36:34;;;;;;;11.23;7.60;;;9.50;99.90;;;;;;4998701;28;20443;-49
2021/12/16 11:39:03;;;;;;;8.53;7.10;;;9.20;99.90;;;;;;5001560;28;20440;-54
2021/12/16 11:41:42;;;;;;;14.20;8.97;;;9.20;99.90;;;;;;4994511;28;20435;-52
2021/12/16 11:44:10;;;;;;;12.83;7.70;;;8.90;99.90;;;;;;4999744;28;20441;-51
2021/12/16 11:46:50;;;;;;;9.90;7.97;;;9.10;99.90;;;;;;4996074;28;20441;-50
2021/12/16 11:49:21;;;;;;;11.90;8.77;;;9.50;99.90;;;;;;5000702;28;20823;-52
2021/12/16 11:51:56;;;;;;;12.37;8.37;;;9.60;99.90;;;;;;5000863;28;20531;-51
2021/12/16 11:54:27;;;;;;;11.77;8.77;;;9.70;99.90;;;;;;4999162;28;20463;-52
2021/12/16 11:57:04;;;;;;;13.90;9.20;;;9.60;99.90;;;;;;4998524;28;20536;-51
2021/12/16 11:59:35;;;;;;;11.73;8.30;;;9.70;99.90;;;;;;5000219;28;21339;-53
2021/12/16 12:02:01;;;;;;;12.57;9.50;;;9.80;99.90;;;;;;5000387;28;20455;-51
2021/12/16 12:04:35;;;;;;;11.03;8.17;;;10.00;99.90;;;;;;4999012;28;20452;-52
2021/12/16 12:07:09;;;;;;;11.30;8.40;;;10.00;99.90;;;;;;4999293;28;20432;-52
2021/12/16 12:09:47;;;;;;;9.30;7.53;;;10.00;99.90;;;;;;5001288;28;20443;-49
2021/12/16 12:12:13;;;;;;;12.60;8.37;;;9.90;99.90;;;;;;4998238;28;20561;-51
2021/12/16 12:14:41;;;;;;;16.87;9.07;;;9.90;99.90;;;;;;4999366;28;20503;-52
2021/12/16 12:17:18;;;;;;;10.73;8.30;;;9.70;99.90;;;;;;4996212;28;20447;-51
2021/12/16 12:19:46;;;;;;;11.37;8.03;;;9.70;99.90;;;;;;4994406;28;20440;-52
2021/12/16 12:22:13;;;;;;;11.23;8.37;;;10.20;99.90;;;;;;4994277;28;21154;-51
2021/12/16 12:24:46;;;;;;;11.43;8.30;;;10.40;99.90;;;;;;4991923;28;20933;-50
2021/12/16 12:27:21;;;;;;;10.47;8.37;;;10.40;99.90;;;;;;4994183;28;20431;-55
2021/12/16 12:29:53;;;;;;;9.40;7.30;;;10.30;99.90;;;;;;4993094;28;20455;-52
2021/12/16 12:32:30;;;;;;;10.80;8.23;;;10.20;99.90;;;;;;4998040;28;20463;-51
2021/12/16 12:35:09;;;;;;;11.27;8.83;;;10.30;99.90;;;;;;4996474;28;20860;-49
2021/12/16 12:37:38;;;;;;;10.13;8.03;;;10.60;99.90;;;;;;4996736;28;20444;-54
2021/12/16 12:40:18;;;;;;;11.90;8.30;;;10.80;99.90;;;;;;4998795;28;20468;-51
2021/12/16 12:42:46;;;;;;;13.80;8.90;;;10.70;99.90;;;;;;4999634;28;20459;-52
2021/12/16 12:45:14;;;;;;;10.13;8.43;;;11.20;99.90;;;;;;4999577;28;20535;-50
2021/12/16 12:47:44;;;;;;;11.77;8.43;;;11.50;99.90;;;;;;5000204;28;20443;-51
2021/12/16 12:50:18;;;;;;;11.20;8.43;;;11.70;99.90;;;;;;4997520;28;20526;-54
2021/12/16 12:52:47;;;;;;;11.17;8.13;;;12.10;99.90;;;;;;4999837;28;20821;-54
2021/12/16 12:55:28;;;;;;;12.30;9.30;;;12.30;99.90;;;;;;4995451;28;20550;-53
2021/12/16 12:58:08;;;;;;;11.60;8.60;;;12.90;99.90;;;;;;4995851;28;20485;-51
2021/12/16 13:00:41;;;;;;;9.83;8.40;;;13.20;99.90;;;;;;4996166;28;20775;-52
2021/12/16 13:03:27;;;;;;;12.70;9.27;;;13.60;99.90;;;;;;4999474;28;20458;-52
2021/12/16 13:05:55;;;;;;;13.57;9.80;;;13.70;99.90;;;;;;4999512;28;20439;-49
2021/12/16 13:08:36;;;;;;;11.90;9.87;;;13.70;99.90;;;;;;4999272;28;20833;-52
2021/12/16 13:11:17;;;;;;;11.90;9.20;;;13.80;99.90;;;;;;4999861;28;20961;-52
2021/12/16 13:14:08;;;;;;;12.47;9.57;;;13.40;99.90;;;;;;4994757;28;20467;-51
2021/12/16 13:28:26;;;;;;;13.30;10.03;;;12.60;99.90;;;;;;4998102;28;20454;-52
2021/12/16 13:31:02;;;;;;;13.30;9.80;;;12.60;99.90;;;;;;4996982;28;20455;-52
2021/12/16 13:33:46;;;;;;;12.00;8.73;;;12.60;99.90;;;;;;4994975;28;20471;-51
2021/12/16 13:36:25;;;;;;;10.50;8.43;;;12.30;99.90;;;;;;4997536;28;20439;-52
2021/12/16 13:38:51;;;;;;;12.03;8.20;;;12.20;99.90;;;;;;4998635;28;20434;-53
2021/12/16 13:41:28;;;;;;;38.73;19.63;;;12.20;99.90;;;;;;4994172;28;20420;-53
2021/12/16 13:44:15;;;;;;;24.33;15.90;;;12.20;99.90;;;;;;4995810;28;20831;-52
2021/12/16 13:47:18;;;;;;;19.63;10.63;;;12.10;99.90;;;;;;4997901;28;20428;-53
2021/12/16 13:59:33;;;;;;;11.50;8.57;;;11.80;99.90;;;;;;4997242;28;20507;-50
2021/12/16 14:06:51;;;;;;;12.07;7.60;;;11.60;99.90;;;;;;4998563;28;20953;-47
2021/12/16 14:09:24;;;;;;;10.80;7.67;;;11.50;99.90;;;;;;4997380;28;20456;-52
2021/12/16 14:23:38;;;;;;;12.97;7.87;;;11.40;99.90;;;;;;4997115;28;20443;-50
2021/12/16 14:37:20;;;;;;;11.77;8.50;;;11.40;99.90;;;;;;4995292;28;20482;-48
2021/12/16 14:48:23;;;;;;;11.10;8.53;;;10.70;99.90;;;;;;4996922;28;20426;-50
2021/12/16 14:50:54;;;;;;;13.13;9.17;;;10.90;99.90;;;;;;4996480;28;20428;-50
2021/12/16 14:53:31;;;;;;;13.50;9.57;;;10.90;99.90;;;;;;4994534;28;20595;-51
2021/12/16 14:56:08;;;;;;;14.40;9.77;;;10.90;99.90;;;;;;5000400;28;20467;-49
2021/12/16 14:58:34;;;;;;;13.13;9.83;;;11.00;99.90;;;;;;5000137;28;20464;-53
2021/12/16 15:01:09;;;;;;;15.80;10.90;;;10.90;99.90;;;;;;4989905;28;20432;-49
2021/12/16 15:03:39;;;;;;;12.87;9.43;;;10.90;99.90;;;;;;5001447;28;20451;-52
2021/12/16 15:06:20;;;;;;;14.60;10.37;;;10.90;99.90;;;;;;5001208;28;20437;-53
2021/12/16 15:11:34;;;;;;;12.63;9.10;;;10.50;99.90;;;;;;5000836;28;20461;-50
2021/12/16 15:14:06;;;;;;;14.67;9.63;;;10.50;99.90;;;;;;4996934;28;20475;-50
2021/12/16 15:36:40;;;;;;;14.40;12.57;;;11.00;99.90;;;;;;4999840;28;20456;-51
2021/12/16 15:44:51;;;;;;;17.60;10.23;;;11.00;99.90;;;;;;4999791;28;20479;-53
2021/12/16 15:47:17;;;;;;;14.13;9.93;;;10.80;99.90;;;;;;5000912;28;20546;-50
2021/12/16 15:49:44;;;;;;;15.53;9.67;;;10.90;99.90;;;;;;4999788;28;20433;-51
2021/12/16 15:52:10;;;;;;;11.93;10.20;;;10.90;99.90;;;;;;5002116;28;20456;-51
2021/12/16 15:54:36;;;;;;;15.37;10.37;;;10.80;99.90;;;;;;5001427;28;20521;-50
2021/12/16 15:57:05;;;;;;;13.40;9.33;;;10.90;99.90;;;;;;5000933;28;20590;-52
2021/12/16 15:59:30;;;;;;;13.70;9.53;;;10.90;99.90;;;;;;5001150;28;20445;-46
2021/12/16 16:01:58;;;;;;;12.50;9.87;;;10.80;99.90;;;;;;4999482;28;20926;-52
2021/12/16 16:04:28;;;;;;;12.30;8.47;;;10.80;99.90;;;;;;4999844;28;20252;-52
2021/12/16 16:06:58;;;;;;;12.73;10.20;;;10.90;99.90;;;;;;5002510;28;20531;-51
2021/12/16 16:09:27;;;;;;;14.43;11.20;;;10.90;99.90;;;;;;4996858;28;20908;-49
2021/12/16 16:11:54;;;;;;;16.23;10.60;;;10.90;99.90;;;;;;5001301;28;20428;-51
2021/12/16 16:14:23;;;;;;;14.50;10.70;;;11.00;99.90;;;;;;4994200;28;20472;-51
2021/12/16 16:16:54;;;;;;;14.87;9.20;;;11.00;99.90;;;;;;5000230;28;20435;-49
2021/12/16 16:19:32;;;;;;;14.23;9.17;;;11.00;99.90;;;;;;4996638;28;20834;-52
2021/12/16 16:22:03;;;;;;;12.93;9.40;;;10.90;99.90;;;;;;4999099;28;20488;-47
2021/12/16 16:24:35;;;;;;;12.57;10.27;;;10.90;99.90;;;;;;5000903;28;20466;-50
2021/12/16 16:27:15;;;;;;;13.57;10.20;;;10.90;99.90;;;;;;4998611;28;20433;-49
2021/12/16 16:29:46;;;;;;;25.33;19.63;;;10.90;99.90;;;;;;4999107;28;20452;-48
2021/12/16 16:32:12;;;;;;;17.87;13.80;;;10.80;99.90;;;;;;4997565;28;20813;-52
2021/12/16 16:34:50;;;;;;;19.23;12.20;;;10.80;99.90;;;;;;4994286;28;20505;-51
2021/12/16 16:37:29;;;;;;;13.33;11.93;;;10.80;99.90;;;;;;4992452;28;20506;-52
2021/12/16 16:40:06;;;;;;;13.83;12.33;;;10.80;99.90;;;;;;4994016;28;20948;-48
2021/12/16 16:42:38;;;;;;;18.83;16.70;;;10.80;99.90;;;;;;4990956;28;20499;-52
2021/12/16 16:45:08;;;;;;;15.90;14.20;;;10.80;99.90;;;;;;4992620;28;20554;-50
2021/12/16 16:47:40;;;;;;;20.60;16.50;;;10.70;99.90;;;;;;4994049;28;20680;-53
2021/12/16 16:50:09;;;;;;;16.10;12.93;;;10.70;99.90;;;;;;4994138;28;20443;-53
2021/12/16 16:52:44;;;;;;;16.23;12.90;;;10.80;99.90;;;;;;5013763;28;20464;-54
2021/12/16 16:55:16;;;;;;;16.57;14.03;;;10.70;99.90;;;;;;4993177;28;20474;-53
2021/12/16 16:57:51;;;;;;;18.73;15.70;;;10.70;99.90;;;;;;4997940;28;20447;-54
2021/12/16 17:00:22;;;;;;;18.83;15.90;;;10.70;99.90;;;;;;5024489;28;20440;-51
2021/12/16 17:02:52;;;;;;;16.47;12.27;;;10.70;99.90;;;;;;4995162;28;20508;-49